Time;durP1;ratioP1;P1;durP2;ratioP2;P2;SDS_P1;SDS_P2;PMS_P1;PMS_P2;Temp;Humidity;BMP_temperature;BMP_pressure;BME280_temperature;BME280_humidity;BME280_pressure;Samples;Min_cycle;Max_cycle;Signal;HPM_P1;HPM_P2
2022/02/04 00:23:24;;;;;;;;;;;;;;;;;;4879533;29;19921;-70
2022/02/04 00:26:16;;;;;;;;;;;;;;;;;;4890732;29;19990;-69
2022/02/04 00:31:38;;;;;;;;;;;;;;;;;;4885470;29;19915;-70
2022/02/04 00:34:19;;;;;;;;;;;;;;;;;;4891109;29;19915;-70
2022/02/04 00:39:19;;;;;;;;;;;;;;;;;;4921474;29;19915;-70
2022/02/04 00:41:59;;;;;;;;;;;;;;;;;;4920818;29;19914;-69
2022/02/04 00:44:29;;;;;;;;;;;;;;;;;;4921779;29;19914;-70
2022/02/04 00:47:32;;;;;;;;;;;;;;;;;;4920828;29;19961;-69
2022/02/04 01:27:28;;;;;;;;;;;;;;;;;;5010613;28;19978;-70
2022/02/04 01:32:26;;;;;;;;;;;;;;;;;;5011392;28;19920;-70
2022/02/04 01:34:53;;;;;;;;;;;;;;;;;;5007627;28;19929;-70
2022/02/04 01:37:19;;;;;;;;;;;;;;;;;;4990133;28;19920;-69
2022/02/04 01:39:45;;;;;;;;;;;;;;;;;;5012091;28;20718;-69
2022/02/04 01:42:12;;;;;;;;;;;;;;;;;;5012764;28;19920;-70
2022/02/04 01:44:38;;;;;;;;;;;;;;;;;;5011397;28;19923;-69
2022/02/04 01:47:05;;;;;;;;;;;;;;;;;;5008612;28;19917;-70
2022/02/04 01:49:34;;;;;;;;;;;;;;;;;;5011454;28;19947;-70
2022/02/04 01:52:01;;;;;;;;;;;;;;;;;;5007326;28;19917;-70
2022/02/04 01:54:27;;;;;;;;;;;;;;;;;;5012131;28;19982;-69
2022/02/04 01:56:53;;;;;;;;;;;;;;;;;;5010608;28;20486;-69
2022/02/04 01:59:19;;;;;;;;;;;;;;;;;;5008607;28;19917;-69
2022/02/04 02:01:45;;;;;;;;;;;;;;;;;;5012238;28;19913;-69
2022/02/04 02:04:15;;;;;;;;;;;;;;;;;;5011465;28;19913;-69
2022/02/04 02:06:43;;;;;;;;;;;;;;;;;;4993486;28;19913;-69
2022/02/04 02:09:10;;;;;;;;;;;;;;;;;;5007642;28;19955;-69
2022/02/04 02:11:36;;;;;;;;;;;;;;;;;;5009656;28;19909;-69
2022/02/04 02:14:10;;;;;;;;;;;;;;;;;;5007183;28;19913;-70
2022/02/04 02:58:23;;;;;;;;;;;;;;;;;;4923349;28;19918;-70
2022/02/04 03:01:10;;;;;;;;;;;;;;;;;;4924776;28;19911;-70
2022/02/04 03:03:37;;;;;;;;;;;;;;;;;;4930775;28;20017;-70
2022/02/04 03:06:11;;;;;;;;;;;;;;;;;;4923536;28;19921;-70
2022/02/04 03:08:38;;;;;;;;;;;;;;;;;;4931154;28;20384;-70
2022/02/04 03:11:04;;;;;;;;;;;;;;;;;;4927683;28;19914;-70
2022/02/04 03:13:31;;;;;;;;;;;;;;;;;;4913873;28;19922;-70
2022/02/04 03:16:08;;;;;;;;;;;;;;;;;;4981591;28;19914;-70
2022/02/04 03:18:38;;;;;;;;;;;;;;;;;;4988040;28;20060;-70
2022/02/04 03:21:14;;;;;;;;;;;;;;;;;;4987749;28;19956;-69
2022/02/04 03:23:55;;;;;;;;;;;;;;;;;;4986580;28;19993;-70
2022/02/04 03:29:08;;;;;;;;;;;;;;;;;;4985172;28;19928;-70
2022/02/04 03:31:41;;;;;;;;;;;;;;;;;;4990751;28;19917;-70
2022/02/04 03:34:08;;;;;;;;;;;;;;;;;;4983866;28;20526;-69
2022/02/04 03:36:34;;;;;;;;;;;;;;;;;;5007912;28;19920;-69
2022/02/04 03:39:01;;;;;;;;;;;;;;;;;;4994607;28;19920;-69
2022/02/04 03:41:27;;;;;;;;;;;;;;;;;;4997432;28;20454;-69
2022/02/04 03:43:54;;;;;;;;;;;;;;;;;;5014865;28;19919;-69
2022/02/04 03:46:20;;;;;;;;;;;;;;;;;;5013231;28;19936;-69
2022/02/04 03:48:46;;;;;;;;;;;;;;;;;;5012535;28;20614;-69
2022/02/04 03:51:12;;;;;;;;;;;;;;;;;;5009691;28;19960;-69
2022/02/04 03:53:40;;;;;;;;;;;;;;;;;;5014067;28;19940;-69
2022/02/04 03:56:07;;;;;;;;;;;;;;;;;;5011324;28;19959;-70
2022/02/04 03:58:46;;;;;;;;;;;;;;;;;;;;;
2022/02/04 04:01:21;;;;;;;;;;;;;;;;;;5007828;28;19984;-70
2022/02/04 04:03:48;;;;;;;;;;;;;;;;;;5010620;28;19999;-70
2022/02/04 04:06:16;;;;;;;;;;;;;;;;;;4993960;28;19920;-70
2022/02/04 04:08:44;;;;;;;;;;;;;;;;;;5014826;28;19924;-70
2022/02/04 04:11:12;;;;;;;;;;;;;;;;;;5013717;28;19912;-70
2022/02/04 04:13:40;;;;;;;;;;;;;;;;;;5014104;28;19956;-70
2022/02/04 04:16:06;;;;;;;;;;;;;;;;;;5011839;28;20035;-70
2022/02/04 04:18:32;;;;;;;;;;;;;;;;;;5011749;28;19947;-69
2022/02/04 04:21:01;;;;;;;;;;;;;;;;;;5008825;28;19921;-69
2022/02/04 04:23:28;;;;;;;;;;;;;;;;;;5012678;28;19913;-70
2022/02/04 04:25:54;;;;;;;;;;;;;;;;;;5015096;28;19990;-69
2022/02/04 04:28:20;;;;;;;;;;;;;;;;;;5008691;28;19917;-70
2022/02/04 04:30:47;;;;;;;;;;;;;;;;;;5012674;28;20020;-70
2022/02/04 04:33:13;;;;;;;;;;;;;;;;;;5007762;28;19924;-70
2022/02/04 04:35:39;;;;;;;;;;;;;;;;;;4995488;28;19935;-70
2022/02/04 04:38:24;;;;;;;;;;;;;;;;;;4992013;28;19963;-70
2022/02/04 05:30:21;;;;;;;;;;;;;;;;;;5007654;28;19983;-70
2022/02/04 05:32:47;;;;;;;;;;;;;;;;;;5009759;28;19916;-70
2022/02/04 05:35:13;;;;;;;;;;;;;;;;;;5008954;28;19924;-69
2022/02/04 05:37:45;;;;;;;;;;;;;;;;;;5013041;28;19916;-70
2022/02/04 05:40:15;;;;;;;;;;;;;;;;;;4992390;28;20008;-70
2022/02/04 05:42:53;;;;;;;;;;;;;;;;;;5013965;28;20524;-70
2022/02/04 05:45:24;;;;;;;;;;;;;;;;;;5009268;28;19920;-70
2022/02/04 05:48:04;;;;;;;;;;;;;;;;;;5012822;28;19921;-70
2022/02/04 05:50:55;;;;;;;;;;;;;;;;;;5010666;28;20067;-70
2022/02/04 05:53:35;;;;;;;;;;;;;;;;;;5006830;28;19913;-70
2022/02/04 05:58:36;;;;;;;;;;;;;;;;;;5010608;28;19923;-70
2022/02/04 06:01:32;;;;;;;;;;;;;;;;;;5008797;28;19913;-70
2022/02/04 06:04:20;;;;;;;;;;;;;;;;;;5009444;28;20327;-69
2022/02/04 06:12:52;;;;;;;;;;;;;;;;;;5006652;28;20822;-70
2022/02/04 06:22:07;;;;;;;;;;;;;;;;;;5011076;28;19932;-70
2022/02/04 06:23:30;;;;;;;;;;;;;;;;;;5011084;28;19924;-72
2022/02/04 06:26:16;;;;;;;;;;;;;;;;;;5008914;28;19913;-72
2022/02/04 06:28:49;;;;;;;;;;;;;;;;;;5011670;28;20392;-70
2022/02/04 06:31:16;;;;;;;;;;;;;;;;;;5007874;28;19935;-70
2022/02/04 06:33:43;;;;;;;;;;;;;;;;;;5010528;28;20403;-70
2022/02/04 06:36:10;;;;;;;;;;;;;;;;;;5007025;28;19956;-70
2022/02/04 06:38:36;;;;;;;;;;;;;;;;;;4994259;28;19948;-70
2022/02/04 06:41:04;;;;;;;;;;;;;;;;;;5008051;28;20280;-71
2022/02/04 06:43:31;;;;;;;;;;;;;;;;;;4991627;28;19913;-71
2022/02/04 06:45:58;;;;;;;;;;;;;;;;;;5007914;28;20213;-71
2022/02/04 06:48:25;;;;;;;;;;;;;;;;;;5011353;28;19916;-71
2022/02/04 06:50:51;;;;;;;;;;;;;;;;;;4991155;28;19914;-71
2022/02/04 06:53:17;;;;;;;;;;;;;;;;;;5006175;28;20682;-71
2022/02/04 06:58:40;;;;;;;;;;;;;;;;;;4966885;28;19996;-71
2022/02/04 07:01:07;;;;;;;;;;;;;;;;;;4950214;28;19920;-71
2022/02/04 07:03:34;;;;;;;;;;;;;;;;;;4954852;28;19975;-71
2022/02/04 07:06:02;;;;;;;;;;;;;;;;;;4950466;28;19913;-70
2022/02/04 07:14:35;;;;;;;;;;;;;;;;;;4968313;28;20100;-71
2022/02/04 07:22:07;;;;;;;;;;;;;;;;;;4971004;28;19917;-70
2022/02/04 07:24:35;;;;;;;;;;;;;;;;;;4972058;28;20037;-69
2022/02/04 07:27:02;;;;;;;;;;;;;;;;;;4962980;28;19917;-71
2022/02/04 07:29:29;;;;;;;;;;;;;;;;;;4984448;28;20048;-71
2022/02/04 07:32:06;;;;;;;;;;;;;;;;;;4994571;28;20406;-70
2022/02/04 07:34:48;;;;;;;;;;;;;;;;;;4992498;28;19948;-70
2022/02/04 07:42:53;;;;;;;;;;;;;;;;;;4968445;28;20355;-70
2022/02/04 07:45:19;;;;;;;;;;;;;;;;;;4988565;28;19925;-70
2022/02/04 07:47:46;;;;;;;;;;;;;;;;;;4983376;28;19922;-70
2022/02/04 07:50:13;;;;;;;;;;;;;;;;;;4985697;28;19927;-71
2022/02/04 07:52:44;;;;;;;;;;;;;;;;;;4994905;28;19931;-71
2022/02/04 07:55:11;;;;;;;;;;;;;;;;;;4982167;28;19914;-71
2022/02/04 07:57:37;;;;;;;;;;;;;;;;;;4993032;28;19909;-70
2022/02/04 08:00:04;;;;;;;;;;;;;;;;;;4989441;28;19913;-70
2022/02/04 08:02:30;;;;;;;;;;;;;;;;;;4993273;28;19968;-70
2022/02/04 08:05:04;;;;;;;;;;;;;;;;;;4992378;28;20390;-71
2022/02/04 08:07:38;;;;;;;;;;;;;;;;;;4993706;28;19925;-71
2022/02/04 08:10:23;;;;;;;;;;;;;;;;;;4994125;28;19920;-71
2022/02/04 08:13:13;;;;;;;;;;;;;;;;;;4992245;28;20368;-70
2022/02/04 08:24:10;;;;;;;;;;;;;;;;;;4985701;28;19924;-68
2022/02/04 08:32:33;;;;;;;;;;;;;;;;;;4903357;29;19919;-66
2022/02/04 08:51:37;;;;;;;;;;;;;;;;;;4902786;29;19931;-67
2022/02/04 08:54:19;;;;;;;;;;;;;;;;;;4906585;29;20004;-67
2022/02/04 09:00:01;;;;;;;;;;;;;;;;;;4907104;29;20528;-68
2022/02/04 09:02:42;;;;;;;;;;;;;;;;;;4905908;29;20275;-67
2022/02/04 09:05:17;;;;;;;;;;;;;;;;;;4904409;29;22029;-68
2022/02/04 09:08:09;;;;;;;;;;;;;;;;;;4911128;29;19922;-68
2022/02/04 09:10:37;;;;;;;;;;;;;;;;;;5004943;28;19917;-67
2022/02/04 09:23:46;;;;;;;;;;;;;;;;;;4972877;28;19912;-67
2022/02/04 09:26:12;;;;;;;;;;;;;;;;;;4986446;28;19909;-67
2022/02/04 09:28:38;;;;;;;;;;;;;;;;;;5007303;28;19920;-68
2022/02/04 09:31:04;;;;;;;;;;;;;;;;;;5000228;28;19971;-67
2022/02/04 09:33:30;;;;;;;;;;;;;;;;;;5001885;28;19986;-67
2022/02/04 09:35:56;;;;;;;;;;;;;;;;;;5004196;28;19917;-67
2022/02/04 09:38:22;;;;;;;;;;;;;;;;;;5000349;28;19913;-67
2022/02/04 09:40:48;;;;;;;;;;;;;;;;;;5002171;28;19919;-67
2022/02/04 09:43:14;;;;;;;;;;;;;;;;;;4997128;28;19919;-67
2022/02/04 09:45:40;;;;;;;;;;;;;;;;;;4981061;28;19913;-67
2022/02/04 09:48:07;;;;;;;;;;;;;;;;;;4998424;28;20376;-67
2022/02/04 09:50:35;;;;;;;;;;;;;;;;;;4988933;28;19958;-67
2022/02/04 10:07:14;;;;;;;;;;;;;;;;;;5003560;28;19919;-67
2022/02/04 10:10:23;;;;;;;;;;;;;;;;;;5002995;28;19928;-67
2022/02/04 10:17:54;;;;;;;;;;;;;;;;;;4985016;28;19913;-67
2022/02/04 10:20:21;;;;;;;;;;;;;;;;;;4999731;28;19943;-67
2022/02/04 10:22:47;;;;;;;;;;;;;;;;;;4998840;28;19960;-67
2022/02/04 10:25:16;;;;;;;;;;;;;;;;;;4988594;28;19917;-67
2022/02/04 10:27:47;;;;;;;;;;;;;;;;;;5006835;28;19916;-68
2022/02/04 10:30:14;;;;;;;;;;;;;;;;;;4960813;28;19921;-68
2022/02/04 10:32:40;;;;;;;;;;;;;;;;;;4982106;28;19953;-67
2022/02/04 10:35:07;;;;;;;;;;;;;;;;;;4967331;28;20372;-66
2022/02/04 10:37:35;;;;;;;;;;;;;;;;;;4983767;28;20008;-66
2022/02/04 10:42:38;;;;;;;;;;;;;;;;;;4981998;28;19913;-67
2022/02/04 10:46:17;;;;;;;;;;;;;;;;;;4984332;28;19920;-67
2022/02/04 10:48:38;;;;;;;;;;;;;;;;;;4965801;28;19955;-67
2022/02/04 11:04:46;;;;;;;;;;;;;;;;;;4929201;28;20012;-67
2022/02/04 11:10:15;;;;;;;;;;;;;;;;;;4931684;28;19914;-68
2022/02/04 11:32:20;;;;;;;;;;;;;;;;;;4981513;28;19924;-68
2022/02/04 11:34:45;;;;;;;;;;;;;;;;;;4988467;28;20352;-68
2022/02/04 11:48:32;;;;;;;;;;;;;;;;;;4948809;28;20016;-68
2022/02/04 11:51:13;;;;;;;;;;;;;;;;;;4984711;28;19920;-68
2022/02/04 11:54:29;;;;;;;;;;;;;;;;;;4986313;28;20552;-68
2022/02/04 11:56:42;;;;;;;;;;;;;;;;;;4983439;28;20613;-68
2022/02/04 11:59:08;;;;;;;;;;;;;;;;;;4972606;28;20235;-68
2022/02/04 12:01:34;;;;;;;;;;;;;;;;;;4987341;28;21031;-68
2022/02/04 12:04:00;;;;;;;;;;;;;;;;;;4983927;28;19923;-68
2022/02/04 12:06:26;;;;;;;;;;;;;;;;;;4983392;28;19923;-68
2022/02/04 12:08:52;;;;;;;;;;;;;;;;;;4981569;28;19918;-68
2022/02/04 12:11:20;;;;;;;;;;;;;;;;;;4980046;28;20383;-68
2022/02/04 12:13:46;;;;;;;;;;;;;;;;;;4987662;28;19920;-67
2022/02/04 12:16:15;;;;;;;;;;;;;;;;;;4980809;28;19970;-67
2022/02/04 12:18:48;;;;;;;;;;;;;;;;;;4986973;28;19921;-68
2022/02/04 12:21:15;;;;;;;;;;;;;;;;;;4985626;28;19968;-68
2022/02/04 12:23:46;;;;;;;;;;;;;;;;;;4974230;28;19913;-68
2022/02/04 12:26:13;;;;;;;;;;;;;;;;;;4980746;28;20506;-68
2022/02/04 12:28:41;;;;;;;;;;;;;;;;;;4986925;28;19998;-68
2022/02/04 12:31:07;;;;;;;;;;;;;;;;;;4982985;28;19917;-68
2022/02/04 12:33:35;;;;;;;;;;;;;;;;;;4990893;28;19909;-68
2022/02/04 12:36:01;;;;;;;;;;;;;;;;;;4986656;28;20046;-69
2022/02/04 12:38:27;;;;;;;;;;;;;;;;;;5001075;28;20407;-69
2022/02/04 12:40:54;;;;;;;;;;;;;;;;;;5001700;28;19913;-68
2022/02/04 12:43:20;;;;;;;;;;;;;;;;;;4996674;28;19928;-68
2022/02/04 12:45:47;;;;;;;;;;;;;;;;;;5004955;28;19943;-68
2022/02/04 12:48:14;;;;;;;;;;;;;;;;;;4982092;28;19921;-68
2022/02/04 12:50:44;;;;;;;;;;;;;;;;;;5002073;28;19928;-68
2022/02/04 12:53:11;;;;;;;;;;;;;;;;;;5000843;28;19920;-68
2022/02/04 12:55:58;;;;;;;;;;;;;;;;;;5006542;28;19920;-67
2022/02/04 12:58:56;;;;;;;;;;;;;;;;;;5002165;28;19976;-68
2022/02/04 13:09:50;;;;;;;;;;;;;;;;;;4948628;28;20041;-69
2022/02/04 13:12:18;;;;;;;;;;;;;;;;;;4949476;28;19918;-69
2022/02/04 13:14:45;;;;;;;;;;;;;;;;;;4952390;28;20365;-68
2022/02/04 13:17:11;;;;;;;;;;;;;;;;;;4950660;28;20332;-70
2022/02/04 13:19:37;;;;;;;;;;;;;;;;;;4945878;28;19941;-68
2022/02/04 13:22:03;;;;;;;;;;;;;;;;;;4945237;28;20144;-68
2022/02/04 13:24:29;;;;;;;;;;;;;;;;;;4948053;28;20061;-68
2022/02/04 13:26:55;;;;;;;;;;;;;;;;;;4947192;28;21543;-68
2022/02/04 13:29:21;;;;;;;;;;;;;;;;;;4938292;28;19968;-68
2022/02/04 13:31:47;;;;;;;;;;;;;;;;;;4937105;28;19914;-68
2022/02/04 13:34:13;;;;;;;;;;;;;;;;;;4927603;28;19921;-72
2022/02/04 13:36:44;;;;;;;;;;;;;;;;;;4930932;28;20460;-71
2022/02/04 13:42:25;;;;;;;;;;;;;;;;;;4976448;28;20004;-72
2022/02/04 13:44:51;;;;;;;;;;;;;;;;;;4986347;28;19917;-72
2022/02/04 13:47:28;;;;;;;;;;;;;;;;;;4983130;28;19921;-73
2022/02/04 13:52:57;;;;;;;;;;;;;;;;;;4984996;28;20560;-73
2022/02/04 13:55:39;;;;;;;;;;;;;;;;;;4947804;28;19977;-71
2022/02/04 13:58:34;;;;;;;;;;;;;;;;;;4941782;28;19929;-72
2022/02/04 14:03:46;;;;;;;;;;;;;;;;;;4946933;28;19925;-70
2022/02/04 14:06:21;;;;;;;;;;;;;;;;;;4943984;28;19972;-69
2022/02/04 14:09:06;;;;;;;;;;;;;;;;;;4944156;28;19918;-68
2022/02/04 14:11:42;;;;;;;;;;;;;;;;;;4945804;28;19920;-68
2022/02/04 14:14:09;;;;;;;;;;;;;;;;;;4942652;28;19917;-68
2022/02/04 14:16:35;;;;;;;;;;;;;;;;;;4934377;28;19913;-69
2022/02/04 14:19:02;;;;;;;;;;;;;;;;;;4944268;28;21007;-68
2022/02/04 14:21:29;;;;;;;;;;;;;;;;;;4935988;28;20497;-68
2022/02/04 14:23:59;;;;;;;;;;;;;;;;;;4931770;28;19921;-68
2022/02/04 14:26:30;;;;;;;;;;;;;;;;;;4946723;28;19914;-68
2022/02/04 14:37:33;;;;;;;;;;;;;;;;;;4919303;29;19924;-68
2022/02/04 14:58:45;;;;;;;;;;;;;;;;;;5003618;28;19964;-68
2022/02/04 15:04:11;;;;;;;;;;;;;;;;;;5000067;28;19979;-67
2022/02/04 15:06:41;;;;;;;;;;;;;;;;;;5003136;28;19913;-67
2022/02/04 15:09:09;;;;;;;;;;;;;;;;;;4998804;28;19928;-68
2022/02/04 15:11:36;;;;;;;;;;;;;;;;;;5002393;28;19920;-68
2022/02/04 15:14:02;;;;;;;;;;;;;;;;;;4985389;28;19918;-68
2022/02/04 15:16:30;;;;;;;;;;;;;;;;;;5000988;28;19917;-67
2022/02/04 15:18:56;;;;;;;;;;;;;;;;;;5001432;28;19913;-67
2022/02/04 15:21:24;;;;;;;;;;;;;;;;;;4999911;28;19921;-67
2022/02/04 15:23:52;;;;;;;;;;;;;;;;;;5000521;28;20323;-66
2022/02/04 15:26:18;;;;;;;;;;;;;;;;;;4987664;28;20899;-67
2022/02/04 15:31:19;;;;;;;;;;;;;;;;;;5002193;28;19924;-67
2022/02/04 15:33:48;;;;;;;;;;;;;;;;;;4999531;28;19947;-67
2022/02/04 15:36:23;;;;;;;;;;;;;;;;;;4985201;28;19920;-67
2022/02/04 15:38:50;;;;;;;;;;;;;;;;;;5002348;28;20027;-67
2022/02/04 15:41:17;;;;;;;;;;;;;;;;;;5000862;28;19920;-68
2022/02/04 15:43:49;;;;;;;;;;;;;;;;;;5003755;28;19956;-67
2022/02/04 15:46:40;;;;;;;;;;;;;;;;;;5004983;28;19912;-67
2022/02/04 16:05:20;;;;;;;;;;;;;;;;;;4961145;28;19992;-67
2022/02/04 16:07:46;;;;;;;;;;;;;;;;;;5007668;28;19917;-67
2022/02/04 16:12:54;;;;;;;;;;;;;;;;;;5004607;28;20848;-67
2022/02/04 16:15:35;;;;;;;;;;;;;;;;;;4999550;28;19920;-66
2022/02/04 16:18:05;;;;;;;;;;;;;;;;;;5006046;28;19912;-67
2022/02/04 16:23:33;;;;;;;;;;;;;;;;;;5004866;28;20476;-67
2022/02/04 16:28:52;;;;;;;;;;;;;;;;;;4978036;28;19944;-67
2022/02/04 16:31:18;;;;;;;;;;;;;;;;;;5008536;28;21113;-68
2022/02/04 16:33:44;;;;;;;;;;;;;;;;;;5010440;28;19912;-67
2022/02/04 16:36:18;;;;;;;;;;;;;;;;;;4991248;28;19966;-68
2022/02/04 16:38:46;;;;;;;;;;;;;;;;;;4993795;28;19913;-68
2022/02/04 16:41:14;;;;;;;;;;;;;;;;;;4987981;28;19956;-67
2022/02/04 16:43:40;;;;;;;;;;;;;;;;;;4988752;28;19918;-68
2022/02/04 16:46:06;;;;;;;;;;;;;;;;;;5003452;28;20584;-69
2022/02/04 16:48:32;;;;;;;;;;;;;;;;;;5011870;28;19990;-69
2022/02/04 16:50:58;;;;;;;;;;;;;;;;;;5008967;28;19923;-69
2022/02/04 16:53:24;;;;;;;;;;;;;;;;;;4996117;28;19917;-69
2022/02/04 16:55:50;;;;;;;;;;;;;;;;;;4994218;28;19909;-69
2022/02/04 16:58:16;;;;;;;;;;;;;;;;;;5008244;28;21201;-69
2022/02/04 17:00:42;;;;;;;;;;;;;;;;;;5011956;28;19913;-69
2022/02/04 17:03:09;;;;;;;;;;;;;;;;;;5007889;28;19913;-69
2022/02/04 17:06:01;;;;;;;;;;;;;;;;;;4996280;28;20557;-69
2022/02/04 17:08:33;;;;;;;;;;;;;;;;;;5009482;28;19916;-69
2022/02/04 17:11:01;;;;;;;;;;;;;;;;;;5006489;28;19913;-69
2022/02/04 17:13:28;;;;;;;;;;;;;;;;;;4994521;28;19996;-70
2022/02/04 17:15:53;;;;;;;;;;;;;;;;;;4994002;28;19964;-68
2022/02/04 17:18:19;;;;;;;;;;;;;;;;;;5008034;28;20281;-68
2022/02/04 17:20:48;;;;;;;;;;;;;;;;;;4992600;28;19964;-69
2022/02/04 17:23:15;;;;;;;;;;;;;;;;;;5004332;28;19970;-69
2022/02/04 17:25:44;;;;;;;;;;;;;;;;;;5012610;28;19913;-71
2022/02/04 17:28:10;;;;;;;;;;;;;;;;;;5008069;28;19924;-70
2022/02/04 17:30:36;;;;;;;;;;;;;;;;;;5011591;28;19917;-71
2022/02/04 17:33:02;;;;;;;;;;;;;;;;;;5009024;28;19919;-70
2022/02/04 17:35:28;;;;;;;;;;;;;;;;;;5010320;28;19916;-70
2022/02/04 17:37:56;;;;;;;;;;;;;;;;;;4995198;28;20595;-70
2022/02/04 17:40:23;;;;;;;;;;;;;;;;;;5008882;28;19917;-70
2022/02/04 17:42:49;;;;;;;;;;;;;;;;;;5011758;28;19981;-70
2022/02/04 17:45:21;;;;;;;;;;;;;;;;;;5007642;28;19909;-73
2022/02/04 17:47:52;;;;;;;;;;;;;;;;;;4989072;28;19932;-69
2022/02/04 17:50:25;;;;;;;;;;;;;;;;;;5005344;28;19917;-70
2022/02/04 17:52:59;;;;;;;;;;;;;;;;;;5008783;28;19913;-70
2022/02/04 17:55:32;;;;;;;;;;;;;;;;;;4991397;28;19943;-69
2022/02/04 17:58:25;;;;;;;;;;;;;;;;;;5006594;28;19913;-70
2022/02/04 18:06:57;;;;;;;;;;;;;;;;;;5007910;28;19935;-70
2022/02/04 18:09:02;;;;;;;;;;;;;;;;;;5004114;28;20322;-70
2022/02/04 18:11:28;;;;;;;;;;;;;;;;;;5011348;28;19923;-69
2022/02/04 18:13:54;;;;;;;;;;;;;;;;;;5010838;28;20567;-70
2022/02/04 18:16:20;;;;;;;;;;;;;;;;;;5008345;28;20488;-70
2022/02/04 18:18:46;;;;;;;;;;;;;;;;;;4991382;28;19924;-70
2022/02/04 18:21:12;;;;;;;;;;;;;;;;;;4988625;28;19921;-70
2022/02/04 18:23:38;;;;;;;;;;;;;;;;;;5012409;28;19958;-70
2022/02/04 18:26:04;;;;;;;;;;;;;;;;;;5009001;28;19913;-69
2022/02/04 18:28:30;;;;;;;;;;;;;;;;;;5009793;28;19917;-68
2022/02/04 18:30:56;;;;;;;;;;;;;;;;;;5008912;28;19924;-66
2022/02/04 18:33:22;;;;;;;;;;;;;;;;;;5009676;28;20380;-66
2022/02/04 18:35:56;;;;;;;;;;;;;;;;;;5008652;28;19913;-67
2022/02/04 18:38:33;;;;;;;;;;;;;;;;;;5007235;28;19913;-67
2022/02/04 18:46:04;;;;;;;;;;;;;;;;;;5424298;23;19998;-67
2022/02/04 18:48:50;;;;;;;;;;;;;;;;;;4933996;28;20021;-68
2022/02/04 18:54:13;;;;;;;;;;;;;;;;;;4952599;28;19918;-67
2022/02/04 18:59:28;;;;;;;;;;;;;;;;;;4951980;28;19920;-65
2022/02/04 19:01:56;;;;;;;;;;;;;;;;;;4948826;28;19953;-65
2022/02/04 19:04:31;;;;;;;;;;;;;;;;;;4952442;28;19917;-67
2022/02/04 19:07:03;;;;;;;;;;;;;;;;;;4949544;28;19920;-67
2022/02/04 19:09:31;;;;;;;;;;;;;;;;;;4957301;28;19926;-67
2022/02/04 19:12:06;;;;;;;;;;;;;;;;;;4950119;28;19914;-67
2022/02/04 19:14:46;;;;;;;;;;;;;;;;;;4954344;28;20156;-68
2022/02/04 19:17:49;;;;;;;;;;;;;;;;;;4957138;28;19918;-66
2022/02/04 19:20:10;;;;;;;;;;;;;;;;;;4952049;28;19921;-68
2022/02/04 19:22:39;;;;;;;;;;;;;;;;;;4956412;28;19942;-68
2022/02/04 19:25:07;;;;;;;;;;;;;;;;;;4955189;28;20028;-67
2022/02/04 19:27:33;;;;;;;;;;;;;;;;;;4949496;28;20629;-68
2022/02/04 19:29:59;;;;;;;;;;;;;;;;;;4948957;28;19925;-67
2022/02/04 19:32:25;;;;;;;;;;;;;;;;;;4948377;28;20001;-68
2022/02/04 19:34:51;;;;;;;;;;;;;;;;;;4949178;28;19947;-68
2022/02/04 19:37:17;;;;;;;;;;;;;;;;;;4953086;28;20525;-68
2022/02/04 19:39:46;;;;;;;;;;;;;;;;;;4948129;28;19933;-68
2022/02/04 19:42:25;;;;;;;;;;;;;;;;;;4949871;28;20168;-69
2022/02/04 19:44:55;;;;;;;;;;;;;;;;;;4932354;28;19914;-69
2022/02/04 19:47:59;;;;;;;;;;;;;;;;;;4941995;28;19926;-69
2022/02/04 19:50:25;;;;;;;;;;;;;;;;;;4955825;28;20628;-69
2022/02/04 20:23:30;;;;;;;;;;;;;;;;;;4930646;28;20286;-68
2022/02/04 20:26:01;;;;;;;;;;;;;;;;;;4930543;28;19926;-68
2022/02/04 20:28:27;;;;;;;;;;;;;;;;;;4932283;28;20316;-68
2022/02/04 20:30:54;;;;;;;;;;;;;;;;;;4929490;28;19956;-68
2022/02/04 20:33:20;;;;;;;;;;;;;;;;;;4914455;28;19961;-68
2022/02/04 20:35:46;;;;;;;;;;;;;;;;;;4924201;28;19997;-68
2022/02/04 20:38:17;;;;;;;;;;;;;;;;;;4926843;28;20358;-68
2022/02/04 20:40:43;;;;;;;;;;;;;;;;;;4912260;29;19914;-68
2022/02/04 20:43:17;;;;;;;;;;;;;;;;;;4935834;28;20383;-68
2022/02/04 20:45:43;;;;;;;;;;;;;;;;;;4963064;28;20407;-68
2022/02/04 20:48:10;;;;;;;;;;;;;;;;;;4949022;28;19929;-69
2022/02/04 20:50:36;;;;;;;;;;;;;;;;;;4949655;28;19965;-68
2022/02/04 20:53:02;;;;;;;;;;;;;;;;;;4943767;28;19918;-68
2022/02/04 20:55:29;;;;;;;;;;;;;;;;;;4949010;28;20373;-68
2022/02/04 20:57:56;;;;;;;;;;;;;;;;;;4962677;28;20341;-67
2022/02/04 21:00:27;;;;;;;;;;;;;;;;;;4963785;28;20192;-68
2022/02/04 21:02:53;;;;;;;;;;;;;;;;;;4943831;28;19921;-69
2022/02/04 21:05:22;;;;;;;;;;;;;;;;;;4964016;28;21805;-68
2022/02/04 21:08:11;;;;;;;;;;;;;;;;;;4946281;28;19921;-68
2022/02/04 21:16:06;;;;;;;;;;;;;;;;;;4946607;28;19928;-69
2022/02/04 21:18:32;;;;;;;;;;;;;;;;;;4962633;28;19918;-69
2022/02/04 21:20:58;;;;;;;;;;;;;;;;;;4944587;28;20474;-70
2022/02/04 21:23:24;;;;;;;;;;;;;;;;;;4949504;28;19914;-69
2022/02/04 21:25:51;;;;;;;;;;;;;;;;;;4962032;28;20309;-68
2022/02/04 21:28:20;;;;;;;;;;;;;;;;;;4961669;28;20492;-69
2022/02/04 21:30:48;;;;;;;;;;;;;;;;;;4955581;28;19914;-68
2022/02/04 21:33:21;;;;;;;;;;;;;;;;;;4946959;28;19925;-69
2022/02/04 21:38:32;;;;;;;;;;;;;;;;;;4948725;28;20681;-68
2022/02/04 21:40:58;;;;;;;;;;;;;;;;;;4930885;28;20052;-68
2022/02/04 21:43:24;;;;;;;;;;;;;;;;;;4947115;28;19984;-68
2022/02/04 21:45:55;;;;;;;;;;;;;;;;;;4962152;28;19922;-69
2022/02/04 21:48:22;;;;;;;;;;;;;;;;;;4947521;28;20088;-68
2022/02/04 21:50:52;;;;;;;;;;;;;;;;;;4924451;28;19941;-69
2022/02/04 21:53:18;;;;;;;;;;;;;;;;;;4960607;28;19918;-69
2022/02/04 21:55:47;;;;;;;;;;;;;;;;;;4943566;28;20133;-68
2022/02/04 21:58:13;;;;;;;;;;;;;;;;;;4942724;28;20459;-69
2022/02/04 22:00:39;;;;;;;;;;;;;;;;;;4943697;28;20376;-69
2022/02/04 22:03:05;;;;;;;;;;;;;;;;;;4945562;28;19937;-69
2022/02/04 22:05:32;;;;;;;;;;;;;;;;;;4952036;28;20288;-68
2022/02/04 22:08:02;;;;;;;;;;;;;;;;;;4946186;28;19929;-68
2022/02/04 22:10:48;;;;;;;;;;;;;;;;;;4946949;28;19978;-68
2022/02/04 22:23:37;;;;;;;;;;;;;;;;;;4945314;28;20403;-68
2022/02/04 22:26:03;;;;;;;;;;;;;;;;;;4944955;28;19996;-70
2022/02/04 22:28:32;;;;;;;;;;;;;;;;;;4963293;28;20039;-68
2022/02/04 22:31:00;;;;;;;;;;;;;;;;;;4926366;28;19984;-69
2022/02/04 22:33:33;;;;;;;;;;;;;;;;;;4965254;28;20017;-70
2022/02/04 22:36:18;;;;;;;;;;;;;;;;;;4948127;28;20004;-69
2022/02/04 22:39:04;;;;;;;;;;;;;;;;;;4945435;28;20530;-70
2022/02/04 22:58:12;;;;;;;;;;;;;;;;;;4875768;29;19922;-69
2022/02/04 23:00:58;;;;;;;;;;;;;;;;;;4874660;29;19958;-69
2022/02/04 23:03:44;;;;;;;;;;;;;;;;;;4878503;29;19957;-69
2022/02/04 23:06:28;;;;;;;;;;;;;;;;;;4876793;29;19921;-69
2022/02/04 23:08:55;;;;;;;;;;;;;;;;;;4873772;29;19979;-68
2022/02/04 23:11:41;;;;;;;;;;;;;;;;;;4879256;29;19922;-68
2022/02/04 23:14:32;;;;;;;;;;;;;;;;;;4876270;29;20009;-68
2022/02/04 23:17:15;;;;;;;;;;;;;;;;;;4869710;29;19998;-68
2022/02/04 23:19:59;;;;;;;;;;;;;;;;;;4875487;29;20414;-69
2022/02/04 23:22:32;;;;;;;;;;;;;;;;;;4881511;29;20009;-68
2022/02/04 23:37:28;;;;;;;;;;;;;;;;;;4892007;29;19966;-69
2022/02/04 23:44:42;;;;;;;;;;;;;;;;;;4892252;29;19922;-69
2022/02/04 23:49:55;;;;;;;;;;;;;;;;;;4968291;28;20455;-69
2022/02/04 23:52:40;;;;;;;;;;;;;;;;;;4968815;28;20272;-68
2022/02/04 23:55:06;;;;;;;;;;;;;;;;;;4969495;28;19924;-69
2022/02/04 23:57:49;;;;;;;;;;;;;;;;;;4970322;28;20265;-69
